createdAt,value
2023-01-04T00:00:30.633Z,2.90
2023-01-04T00:03:02.774Z,3.00
2023-01-04T00:05:34.603Z,3.00
2023-01-04T00:08:06.415Z,3.00
2023-01-04T00:10:38.144Z,3.00
2023-01-04T00:13:10.010Z,3.00
2023-01-04T00:15:41.727Z,3.20
2023-01-04T00:18:14.252Z,3.20
2023-01-04T00:20:46.028Z,3.20
2023-01-04T00:23:17.804Z,3.20
2023-01-04T00:25:49.518Z,3.20
2023-01-04T00:28:21.351Z,3.10
2023-01-04T00:30:53.093Z,3.00
2023-01-04T00:33:24.797Z,3.00
2023-01-04T00:35:56.517Z,3.00
2023-01-04T00:38:28.329Z,3.00
2023-01-04T00:41:00.784Z,2.90
2023-01-04T00:43:32.998Z,2.70
2023-01-04T00:46:06.907Z,2.60
2023-01-04T00:48:40.470Z,2.50
2023-01-04T00:51:12.523Z,2.40
2023-01-04T00:53:44.227Z,2.40
2023-01-04T00:56:15.910Z,2.30
2023-01-04T00:58:47.724Z,2.30
2023-01-04T01:01:19.582Z,2.30
2023-01-04T01:03:56.402Z,2.30
2023-01-04T01:06:29.222Z,2.30
2023-01-04T01:09:01.559Z,2.30
2023-01-04T01:11:34.230Z,2.20
2023-01-04T01:14:07.605Z,2.20
2023-01-04T01:16:57.649Z,2.20
2023-01-04T01:19:30.064Z,2.20
2023-01-04T01:22:01.720Z,2.20
2023-01-04T01:24:33.447Z,2.20
2023-01-04T01:27:05.220Z,2.20
2023-01-04T01:29:37.103Z,2.20
2023-01-04T01:32:08.925Z,2.20
2023-01-04T01:34:40.615Z,2.20
2023-01-04T01:37:12.330Z,2.20
2023-01-04T01:39:44.030Z,2.20
2023-01-04T01:42:20.899Z,2.30
2023-01-04T01:44:59.443Z,2.30
2023-01-04T01:47:41.731Z,2.30
2023-01-04T01:50:25.059Z,2.30
2023-01-04T01:53:00.427Z,2.30
2023-01-04T01:55:34.856Z,2.30
2023-01-04T01:58:08.646Z,2.30
2023-01-04T02:00:40.479Z,2.30
2023-01-04T02:03:21.795Z,2.30
2023-01-04T02:05:55.870Z,2.30
2023-01-04T02:08:27.965Z,2.30
2023-01-04T02:10:59.766Z,2.30
2023-01-04T02:13:53.024Z,2.30
2023-01-04T02:16:32.305Z,2.40
2023-01-04T02:19:07.166Z,2.40
2023-01-04T02:22:07.732Z,2.60
2023-01-04T02:24:45.604Z,2.70
2023-01-04T02:27:36.137Z,2.90
2023-01-04T02:30:30.981Z,3.00
2023-01-04T02:33:10.676Z,2.80
2023-01-04T02:35:51.189Z,2.70
2023-01-04T02:38:47.103Z,2.60
2023-01-04T02:41:32.066Z,2.50
2023-01-04T02:44:53.173Z,2.40
2023-01-04T02:47:55.355Z,2.30
2023-01-04T02:50:49.954Z,2.30
2023-01-04T02:53:26.556Z,2.20
2023-01-04T02:56:37.738Z,2.20
2023-01-04T02:59:48.419Z,2.20
2023-01-04T03:02:53.324Z,2.10
2023-01-04T03:06:05.974Z,2.00
2023-01-04T03:08:43.862Z,1.90
2023-01-04T03:11:36.253Z,1.90
2023-01-04T03:14:30.798Z,1.80
2023-01-04T03:17:11.569Z,1.80
2023-01-04T03:19:56.558Z,1.80
2023-01-04T03:23:00.097Z,1.70
2023-01-04T03:25:55.831Z,1.70
2023-01-04T03:28:50.308Z,1.70
2023-01-04T03:31:56.748Z,1.70
2023-01-04T03:34:47.972Z,1.70
2023-01-04T03:38:15.691Z,1.60
2023-01-04T03:41:40.344Z,1.60
2023-01-04T03:44:53.742Z,1.60
2023-01-04T03:47:50.285Z,1.60
2023-01-04T03:50:28.914Z,1.60
2023-01-04T03:53:01.317Z,1.60
2023-01-04T03:55:37.048Z,1.70
2023-01-04T03:58:09.175Z,1.80
2023-01-04T04:00:41.062Z,1.80
2023-01-04T04:03:13.450Z,2.10
2023-01-04T04:06:04.745Z,2.40
2023-01-04T04:08:36.547Z,2.80
2023-01-04T04:11:27.020Z,2.90
2023-01-04T04:14:00.080Z,3.10
2023-01-04T04:16:31.958Z,3.20
2023-01-04T04:19:08.553Z,3.20
2023-01-04T04:21:40.971Z,3.20
2023-01-04T04:24:24.637Z,3.20
2023-01-04T04:26:56.575Z,3.30
2023-01-04T04:29:28.286Z,3.40
2023-01-04T04:32:00.399Z,3.50
2023-01-04T04:34:32.256Z,3.60
2023-01-04T04:37:03.987Z,3.70
2023-01-04T04:39:35.691Z,3.80
2023-01-04T04:42:08.384Z,3.80
2023-01-04T04:44:40.129Z,3.80
2023-01-04T04:47:11.839Z,3.90
2023-01-04T04:49:43.528Z,3.90
2023-01-04T04:52:15.334Z,3.90
2023-01-04T04:54:46.992Z,4.00
2023-01-04T04:57:18.823Z,4.00
2023-01-04T04:59:50.624Z,4.10
2023-01-04T05:02:22.611Z,4.10
2023-01-04T05:04:54.494Z,4.20
2023-01-04T05:07:26.228Z,4.20
2023-01-04T05:09:57.951Z,4.20
2023-01-04T05:12:50.650Z,4.30
2023-01-04T05:15:35.099Z,4.30
2023-01-04T05:18:08.621Z,4.40
2023-01-04T05:20:40.446Z,4.40
2023-01-04T05:23:14.344Z,4.40
2023-01-04T05:25:47.018Z,4.50
2023-01-04T05:28:19.167Z,4.60
2023-01-04T05:30:51.654Z,4.60
2023-01-04T05:33:31.236Z,4.70
2023-01-04T05:36:04.185Z,4.70
2023-01-04T05:38:36.000Z,4.80
2023-01-04T05:41:27.932Z,4.90
2023-01-04T05:43:59.741Z,5.00
2023-01-04T05:46:31.548Z,5.10
2023-01-04T05:49:03.287Z,5.10
2023-01-04T05:51:35.072Z,5.10
2023-01-04T05:54:06.800Z,5.20
2023-01-04T05:56:38.514Z,5.20
2023-01-04T05:59:10.242Z,5.20
2023-01-04T06:01:42.030Z,5.20
2023-01-04T06:04:13.821Z,5.20
2023-01-04T06:06:45.960Z,5.20
2023-01-04T06:09:17.845Z,5.20
2023-01-04T06:11:49.585Z,5.20
2023-01-04T06:14:21.390Z,5.20
2023-01-04T06:16:53.281Z,5.20
2023-01-04T06:19:24.996Z,5.20
2023-01-04T06:21:57.029Z,5.20
2023-01-04T06:24:28.767Z,5.20
2023-01-04T06:27:01.565Z,5.30
2023-01-04T06:29:33.371Z,5.30
2023-01-04T06:32:05.183Z,5.30
2023-01-04T06:34:36.941Z,5.30
2023-01-04T06:37:09.798Z,5.30
2023-01-04T06:39:41.592Z,5.30
2023-01-04T06:42:32.071Z,5.30
2023-01-04T06:45:04.267Z,5.20
2023-01-04T06:47:36.503Z,5.30
2023-01-04T06:50:09.073Z,5.40
2023-01-04T06:52:41.380Z,5.50
2023-01-04T06:55:13.190Z,5.50
2023-01-04T06:57:44.864Z,5.50
2023-01-04T07:00:17.083Z,5.60
2023-01-04T07:03:14.203Z,5.60
2023-01-04T07:05:40.452Z,5.60
2023-01-04T07:08:13.554Z,5.60
2023-01-04T07:10:45.296Z,5.60
2023-01-04T07:13:17.268Z,5.60
2023-01-04T07:15:49.039Z,5.60
2023-01-04T07:18:21.047Z,5.60
2023-01-04T07:20:52.833Z,5.60
2023-01-04T07:23:24.671Z,5.60
2023-01-04T07:26:00.317Z,5.50
2023-01-04T07:28:51.749Z,5.50
2023-01-04T07:31:23.494Z,5.50
2023-01-04T07:33:55.264Z,5.50
2023-01-04T07:36:27.058Z,5.50
2023-01-04T07:39:02.182Z,5.40
2023-01-04T07:41:33.902Z,5.40
2023-01-04T07:44:06.875Z,5.40
2023-01-04T07:46:39.603Z,5.40
2023-01-04T07:49:17.487Z,5.40
2023-01-04T07:51:50.807Z,5.40
2023-01-04T07:54:24.369Z,5.40
2023-01-04T07:56:56.220Z,5.40
2023-01-04T07:59:28.054Z,5.40
2023-01-04T08:02:00.004Z,5.40
2023-01-04T08:04:35.236Z,5.40
2023-01-04T08:07:07.347Z,5.40
2023-01-04T08:09:39.048Z,5.40
2023-01-04T08:12:10.877Z,5.40
2023-01-04T08:14:42.703Z,5.50
2023-01-04T08:17:14.507Z,5.50
2023-01-04T08:19:46.712Z,5.40
2023-01-04T08:22:18.583Z,5.40
2023-01-04T08:24:50.291Z,5.50
2023-01-04T08:27:22.107Z,5.50
2023-01-04T08:29:53.786Z,5.50
2023-01-04T08:32:25.724Z,5.60
2023-01-04T08:34:57.534Z,5.60
2023-01-04T08:37:31.417Z,5.60
2023-01-04T08:40:03.524Z,5.70
2023-01-04T08:42:35.334Z,5.70
2023-01-04T08:45:07.943Z,5.70
2023-01-04T08:47:39.642Z,5.70
2023-01-04T08:50:11.393Z,5.80
2023-01-04T08:52:43.241Z,5.80
2023-01-04T08:55:21.511Z,5.80
2023-01-04T08:57:55.195Z,5.80
2023-01-04T09:00:27.534Z,5.90
2023-01-04T09:02:59.426Z,5.90
2023-01-04T09:05:32.773Z,5.90
2023-01-04T09:08:04.760Z,5.90
2023-01-04T09:10:39.729Z,6.00
2023-01-04T09:13:11.516Z,6.00
2023-01-04T09:15:43.271Z,6.00
2023-01-04T09:18:32.012Z,6.10
2023-01-04T09:21:16.515Z,6.10
2023-01-04T09:23:48.531Z,6.20
2023-01-04T09:26:22.888Z,6.20
2023-01-04T09:28:56.264Z,6.30
2023-01-04T09:31:29.021Z,6.40
2023-01-04T09:34:13.960Z,6.40
2023-01-04T09:36:48.016Z,6.50
2023-01-04T09:39:23.520Z,6.60
2023-01-04T09:41:58.589Z,6.60
2023-01-04T09:47:31.056Z,6.70
2023-01-04T09:50:18.651Z,6.70
2023-01-04T09:53:08.604Z,6.70
2023-01-04T09:55:45.800Z,6.70
2023-01-04T09:58:24.937Z,6.80
2023-01-04T10:01:07.034Z,6.80
2023-01-04T10:03:40.875Z,6.90
2023-01-04T10:06:15.603Z,6.90
2023-01-04T10:08:47.384Z,6.90
2023-01-04T10:11:36.928Z,6.90
2023-01-04T10:14:23.464Z,7.00
2023-01-04T10:17:14.019Z,7.00
2023-01-04T10:23:51.585Z,7.00
2023-01-04T10:26:42.023Z,7.00
2023-01-04T10:29:38.607Z,7.00
2023-01-04T10:32:16.562Z,7.10
2023-01-04T10:34:49.067Z,7.10
2023-01-04T10:37:24.715Z,7.10
2023-01-04T10:39:57.443Z,7.20
2023-01-04T10:42:55.805Z,7.20
2023-01-04T10:45:36.182Z,7.20
2023-01-04T10:48:30.799Z,7.30
2023-01-04T10:51:09.696Z,7.40
2023-01-04T10:54:02.264Z,7.40
2023-01-04T10:56:51.479Z,7.50
2023-01-04T10:59:55.112Z,7.50
2023-01-04T11:02:49.802Z,7.60
2023-01-04T11:05:29.549Z,7.60
2023-01-04T11:08:11.896Z,7.60
2023-01-04T11:11:10.689Z,7.60
2023-01-04T11:13:42.509Z,7.60
2023-01-04T11:16:14.360Z,7.70
2023-01-04T11:18:49.300Z,7.80
2023-01-04T11:21:24.297Z,7.80
2023-01-04T11:24:22.010Z,7.80
2023-01-04T11:26:55.377Z,7.80
2023-01-04T11:29:46.523Z,7.90
2023-01-04T11:32:40.034Z,7.90
2023-01-04T11:35:12.047Z,8.00
2023-01-04T11:37:43.820Z,8.00
2023-01-04T11:40:20.419Z,8.00
2023-01-04T11:43:14.755Z,8.00
2023-01-04T11:46:02.748Z,8.00
2023-01-04T11:48:39.260Z,8.00
2023-01-04T11:51:36.769Z,8.00
2023-01-04T11:54:14.351Z,8.00
2023-01-04T11:57:17.317Z,8.00
2023-01-04T12:00:09.294Z,8.00
2023-01-04T12:05:32.758Z,8.10
2023-01-04T12:08:05.199Z,8.10
2023-01-04T12:10:36.888Z,8.20
2023-01-04T12:13:10.383Z,8.20
2023-01-04T12:16:01.618Z,8.20
2023-01-04T12:18:41.976Z,8.20
2023-01-04T12:21:22.875Z,8.30
2023-01-04T12:23:55.759Z,8.30
2023-01-04T12:26:27.860Z,8.30
2023-01-04T12:29:24.313Z,8.30
2023-01-04T12:32:05.048Z,8.40
2023-01-04T12:34:45.168Z,8.40
2023-01-04T12:37:45.951Z,8.40
2023-01-04T12:40:46.470Z,8.50
2023-01-04T12:43:23.623Z,8.50
2023-01-04T12:46:49.643Z,8.50
2023-01-04T12:49:27.410Z,8.50
2023-01-04T12:55:03.828Z,8.60
2023-01-04T12:57:39.659Z,8.60
2023-01-04T13:00:13.851Z,8.70
2023-01-04T13:03:18.002Z,8.70
2023-01-04T13:06:07.040Z,8.70
2023-01-04T13:08:42.794Z,8.70
2023-01-04T13:12:03.247Z,8.80
2023-01-04T13:14:48.895Z,8.80
2023-01-04T13:17:26.962Z,8.90
2023-01-04T13:19:58.900Z,8.90
2023-01-04T13:22:32.222Z,9.00
2023-01-04T13:25:11.465Z,9.00
2023-01-04T13:28:04.371Z,9.10
2023-01-04T13:30:38.810Z,9.10
2023-01-04T13:33:26.855Z,9.20
2023-01-04T13:36:17.576Z,9.20
2023-01-04T13:38:49.457Z,9.20
2023-01-04T13:41:23.046Z,9.30
2023-01-04T13:44:19.955Z,9.30
2023-01-04T13:46:55.019Z,9.30
2023-01-04T13:49:27.156Z,9.30
2023-01-04T13:52:50.521Z,9.30
2023-01-04T13:55:23.276Z,9.30
2023-01-04T13:58:00.854Z,9.40
2023-01-04T14:00:42.471Z,9.30
2023-01-04T14:03:23.939Z,9.30
2023-01-04T14:06:10.873Z,9.30
2023-01-04T14:09:08.638Z,9.30
2023-01-04T14:12:08.024Z,9.30
2023-01-04T14:15:20.339Z,9.30
2023-01-04T14:17:55.372Z,9.30
2023-01-04T14:20:27.073Z,9.30
2023-01-04T14:22:59.325Z,9.30
2023-01-04T14:25:31.195Z,9.30
2023-01-04T14:28:27.358Z,9.20
2023-01-04T14:30:59.143Z,9.30
2023-01-04T14:33:36.189Z,9.30
2023-01-04T14:36:07.902Z,9.30
2023-01-04T14:39:00.406Z,9.30
2023-01-04T14:41:51.552Z,9.30
2023-01-04T14:44:30.817Z,9.30
2023-01-04T14:47:06.144Z,9.30
2023-01-04T14:49:38.136Z,9.20
2023-01-04T14:52:17.808Z,9.20
2023-01-04T14:54:50.578Z,9.20
2023-01-04T14:57:22.404Z,9.20
2023-01-04T14:59:54.112Z,9.20
2023-01-04T15:02:27.097Z,9.10
2023-01-04T15:04:58.941Z,9.10
2023-01-04T15:07:40.393Z,9.10
2023-01-04T15:10:26.824Z,9.10
2023-01-04T15:13:00.611Z,9.10
2023-01-04T15:15:35.287Z,9.10
2023-01-04T15:18:07.480Z,9.10
2023-01-04T15:20:40.627Z,9.10
2023-01-04T15:23:12.541Z,9.10
2023-01-04T15:25:44.598Z,9.10
2023-01-04T15:28:16.675Z,9.10
2023-01-04T15:30:48.407Z,9.00
2023-01-04T15:33:20.270Z,9.00
2023-01-04T15:36:00.069Z,8.90
2023-01-04T15:38:32.552Z,8.90
2023-01-04T15:41:06.588Z,8.90
2023-01-04T15:43:38.631Z,8.90
2023-01-04T15:46:10.336Z,8.90
2023-01-04T15:48:42.021Z,8.90
2023-01-04T15:51:13.804Z,8.90
2023-01-04T15:53:45.492Z,8.90
2023-01-04T15:56:18.313Z,9.00
2023-01-04T15:58:55.070Z,9.00
2023-01-04T16:01:26.967Z,9.10
2023-01-04T16:03:58.813Z,9.10
2023-01-04T16:06:30.497Z,9.10
2023-01-04T16:09:02.211Z,9.10
2023-01-04T16:11:34.244Z,9.00
2023-01-04T16:14:05.944Z,9.10
2023-01-04T16:16:37.714Z,9.00
2023-01-04T16:19:09.557Z,9.00
2023-01-04T16:21:41.290Z,9.10
2023-01-04T16:24:44.779Z,9.10
2023-01-04T16:27:05.479Z,9.10
2023-01-04T16:29:37.195Z,9.20
2023-01-04T16:32:08.900Z,9.20
2023-01-04T16:34:40.784Z,9.20
2023-01-04T16:37:12.585Z,9.20
2023-01-04T16:42:37.384Z,9.30
2023-01-04T16:45:10.122Z,9.20
2023-01-04T16:47:43.312Z,9.30
2023-01-04T16:50:15.129Z,9.30
2023-01-04T16:52:46.811Z,9.30
2023-01-04T16:55:23.588Z,9.30
2023-01-04T16:57:55.819Z,9.40
2023-01-04T17:00:27.526Z,9.40
2023-01-04T17:02:59.229Z,9.30
2023-01-04T17:05:30.920Z,9.40
2023-01-04T17:08:02.648Z,9.40
2023-01-04T17:10:37.053Z,9.40
2023-01-04T17:13:08.732Z,9.40
2023-01-04T17:15:43.546Z,9.40
2023-01-04T17:18:17.606Z,9.40
2023-01-04T17:21:11.037Z,9.40
2023-01-04T17:23:50.733Z,9.40
2023-01-04T17:26:24.999Z,9.40
2023-01-04T17:28:58.237Z,9.40
2023-01-04T17:31:36.193Z,9.40
2023-01-04T17:34:10.380Z,9.40
2023-01-04T17:36:42.177Z,9.40
2023-01-04T17:39:13.953Z,9.40
2023-01-04T17:41:45.712Z,9.50
2023-01-04T17:44:17.452Z,9.50
2023-01-04T17:46:49.500Z,9.50
2023-01-04T17:49:23.125Z,9.50
2023-01-04T17:51:57.215Z,9.40
2023-01-04T17:54:28.982Z,9.40
2023-01-04T17:57:00.733Z,9.50
2023-01-04T17:59:32.405Z,9.50
2023-01-04T18:02:04.230Z,9.40
2023-01-04T18:04:36.120Z,9.40
2023-01-04T18:07:07.790Z,9.40
2023-01-04T18:09:39.460Z,9.40
2023-01-04T18:12:11.171Z,9.40
2023-01-04T18:14:43.313Z,9.40
2023-01-04T18:17:15.057Z,9.40
2023-01-04T18:19:46.963Z,9.40
2023-01-04T18:22:18.673Z,9.40
2023-01-04T18:24:50.393Z,9.40
2023-01-04T18:27:24.482Z,9.40
2023-01-04T18:29:57.120Z,9.30
2023-01-04T18:32:28.819Z,9.30
2023-01-04T18:35:05.132Z,9.30
2023-01-04T18:37:36.996Z,9.30
2023-01-04T18:40:09.582Z,9.30
2023-01-04T18:42:46.276Z,9.20
2023-01-04T18:45:19.004Z,9.20
2023-01-04T18:47:52.134Z,9.20
2023-01-04T18:50:23.886Z,9.20
2023-01-04T18:52:55.587Z,9.20
2023-01-04T18:55:27.245Z,9.10
2023-01-04T18:57:58.915Z,9.10
2023-01-04T19:00:30.706Z,9.10
2023-01-04T19:03:02.556Z,9.10
2023-01-04T19:05:34.365Z,9.10
2023-01-04T19:08:06.160Z,9.20
2023-01-04T19:10:37.815Z,9.10
2023-01-04T19:13:09.505Z,9.10
2023-01-04T19:15:47.521Z,9.10
2023-01-04T19:18:19.636Z,9.10
2023-01-04T19:20:51.546Z,9.10
2023-01-04T19:23:23.263Z,9.10
2023-01-04T19:25:56.077Z,9.10
2023-01-04T19:28:27.828Z,9.10
2023-01-04T19:31:04.724Z,9.10
2023-01-04T19:33:37.104Z,9.10
2023-01-04T19:36:10.692Z,9.10
2023-01-04T19:38:42.391Z,9.10
2023-01-04T19:41:29.151Z,9.10
2023-01-04T19:44:07.659Z,9.10
2023-01-04T19:46:40.328Z,9.10
2023-01-04T19:49:15.076Z,9.10
2023-01-04T19:51:49.411Z,9.10
2023-01-04T19:54:25.446Z,9.10
2023-01-04T19:56:57.620Z,9.10
2023-01-04T19:59:29.354Z,9.00
2023-01-04T20:02:01.194Z,9.00
2023-01-04T20:04:33.718Z,9.00
2023-01-04T20:07:05.534Z,8.90
2023-01-04T20:09:37.423Z,8.90
2023-01-04T20:12:09.252Z,8.80
2023-01-04T20:14:40.997Z,8.80
2023-01-04T20:17:13.634Z,8.70
2023-01-04T20:19:45.487Z,8.70
2023-01-04T20:22:17.224Z,8.70
2023-01-04T20:24:49.036Z,8.70
2023-01-04T20:27:20.720Z,8.70
2023-01-04T20:29:52.457Z,8.70
2023-01-04T20:32:24.535Z,8.70
2023-01-04T20:34:56.274Z,8.70
2023-01-04T20:37:28.086Z,8.70
2023-01-04T20:39:59.767Z,8.70
2023-01-04T20:42:50.287Z,8.70
2023-01-04T20:45:21.949Z,8.70
2023-01-04T20:47:53.729Z,8.70
2023-01-04T20:50:25.599Z,8.70
2023-01-04T20:52:57.315Z,8.70
2023-01-04T20:55:29.177Z,8.60
2023-01-04T20:58:01.010Z,8.60
2023-01-04T21:00:32.712Z,8.60
2023-01-04T21:03:06.224Z,8.60
2023-01-04T21:05:43.076Z,8.60
2023-01-04T21:08:14.882Z,8.70
2023-01-04T21:10:46.620Z,8.70
2023-01-04T21:13:18.362Z,8.70
2023-01-04T21:15:50.487Z,8.60
2023-01-04T21:18:22.950Z,8.70
2023-01-04T21:20:54.721Z,8.70
2023-01-04T21:23:27.225Z,8.70
2023-01-04T21:25:58.975Z,8.70
2023-01-04T21:28:30.642Z,8.70
2023-01-04T21:31:02.606Z,8.70
2023-01-04T21:33:34.339Z,8.70
2023-01-04T21:36:23.519Z,8.70
2023-01-04T21:38:57.630Z,8.70
2023-01-04T21:41:29.447Z,8.70
2023-01-04T21:44:01.779Z,8.70
2023-01-04T21:46:34.285Z,8.70
2023-01-04T21:49:06.306Z,8.70
2023-01-04T21:51:38.440Z,8.70
2023-01-04T21:54:10.224Z,8.70
2023-01-04T21:56:41.935Z,8.70
2023-01-04T21:59:13.751Z,8.80
2023-01-04T22:01:45.643Z,8.80
2023-01-04T22:04:17.775Z,8.80
2023-01-04T22:06:49.529Z,8.80
2023-01-04T22:09:21.420Z,8.80
2023-01-04T22:11:53.212Z,8.80
2023-01-04T22:14:25.024Z,8.90
2023-01-04T22:16:56.728Z,8.90
2023-01-04T22:19:28.575Z,8.90
2023-01-04T22:22:00.398Z,8.90
2023-01-04T22:24:37.521Z,8.90
2023-01-04T22:27:09.828Z,8.90
2023-01-04T22:29:41.586Z,8.90
2023-01-04T22:32:13.320Z,8.90
2023-01-04T22:34:45.073Z,8.90
2023-01-04T22:37:16.826Z,8.90
2023-01-04T22:39:48.485Z,8.80
2023-01-04T22:42:20.197Z,8.80
2023-01-04T22:44:52.518Z,8.80
2023-01-04T22:47:24.685Z,8.80
2023-01-04T22:49:56.479Z,8.80
2023-01-04T22:52:28.229Z,8.80
2023-01-04T22:54:59.985Z,8.80
2023-01-04T22:57:31.760Z,8.90
2023-01-04T23:00:05.649Z,8.90
2023-01-04T23:02:37.605Z,8.90
2023-01-04T23:05:10.036Z,8.90
2023-01-04T23:07:41.895Z,8.90
2023-01-04T23:10:13.732Z,8.90
2023-01-04T23:12:45.513Z,8.90
2023-01-04T23:15:17.614Z,8.90
2023-01-04T23:17:49.263Z,8.90
2023-01-04T23:20:21.005Z,8.90
2023-01-04T23:22:52.813Z,8.90
2023-01-04T23:25:25.008Z,9.00
2023-01-04T23:27:56.702Z,9.00
2023-01-04T23:30:28.406Z,9.10
2023-01-04T23:33:00.139Z,9.20
2023-01-04T23:35:31.847Z,9.20
2023-01-04T23:38:03.843Z,9.30
2023-01-04T23:40:35.694Z,9.30
2023-01-04T23:43:07.440Z,9.30
2023-01-04T23:45:39.136Z,9.30
2023-01-04T23:48:10.896Z,9.40
2023-01-04T23:50:42.691Z,9.40
2023-01-04T23:53:14.371Z,9.40
2023-01-04T23:56:05.066Z,9.40
2023-01-04T23:58:36.755Z,9.30
